createdAt,value
2019-06-15T00:00:40.661Z,19.30
2019-06-15T00:01:40.551Z,19.43
2019-06-15T00:02:40.472Z,19.39
2019-06-15T00:03:40.476Z,19.38
2019-06-15T00:04:40.325Z,19.25
2019-06-15T00:05:40.243Z,19.42
2019-06-15T00:06:40.297Z,19.42
2019-06-15T00:07:40.080Z,19.49
2019-06-15T00:08:39.995Z,19.46
2019-06-15T00:09:40.139Z,19.42
2019-06-15T00:10:39.836Z,19.42
2019-06-15T00:11:39.918Z,19.42
2019-06-15T00:12:39.677Z,19.50
2019-06-15T00:13:39.726Z,19.40
2019-06-15T00:14:39.524Z,19.38
2019-06-15T00:15:39.435Z,19.45
2019-06-15T00:16:39.538Z,19.39
2019-06-15T00:17:39.273Z,19.45
2019-06-15T00:18:39.193Z,19.46
2019-06-15T00:19:39.184Z,19.45
2019-06-15T00:20:39.040Z,19.45
2019-06-15T00:21:39.164Z,19.60
2019-06-15T00:22:38.882Z,19.49
2019-06-15T00:23:38.974Z,19.62
2019-06-15T00:24:38.726Z,19.55
2019-06-15T00:25:38.782Z,19.49
2019-06-15T00:26:38.572Z,19.49
2019-06-15T00:27:38.596Z,19.52
2019-06-15T00:28:38.401Z,19.43
2019-06-15T00:29:38.359Z,19.49
2019-06-15T00:30:38.408Z,19.40
2019-06-15T00:31:38.152Z,19.47
2019-06-15T00:32:38.070Z,19.38
2019-06-15T00:33:38.023Z,19.35
2019-06-15T00:34:37.930Z,19.30
2019-06-15T00:35:37.832Z,19.31
2019-06-15T00:36:37.828Z,19.32
2019-06-15T00:37:37.682Z,19.24
2019-06-15T00:38:37.596Z,19.13
2019-06-15T00:39:37.695Z,19.15
2019-06-15T00:40:37.434Z,19.10
2019-06-15T00:41:37.361Z,19.27
2019-06-15T00:42:37.459Z,19.12
2019-06-15T00:43:37.187Z,19.12
2019-06-15T00:44:37.122Z,19.13
2019-06-15T00:45:37.096Z,19.13
2019-06-15T00:46:36.960Z,19.16
2019-06-15T00:47:37.085Z,19.06
2019-06-15T00:48:36.808Z,19.09
2019-06-15T00:49:36.731Z,19.15
2019-06-15T00:50:36.690Z,18.97
2019-06-15T00:51:36.555Z,18.99
2019-06-15T00:52:36.464Z,19.10
2019-06-15T00:53:36.508Z,18.97
2019-06-15T00:54:49.752Z,18.94
2019-06-15T00:55:36.234Z,19.01
2019-06-15T00:56:36.326Z,18.93
2019-06-15T00:57:36.073Z,18.96
2019-06-15T00:58:35.985Z,18.87
2019-06-15T00:59:35.968Z,18.87
2019-06-15T01:00:35.830Z,18.86
2019-06-15T01:01:35.747Z,18.78
2019-06-15T01:02:35.745Z,18.86
2019-06-15T01:03:35.594Z,18.86
2019-06-15T01:04:36.570Z,18.87
2019-06-15T01:05:35.566Z,18.86
2019-06-15T01:06:35.355Z,18.87
2019-06-15T01:07:35.282Z,18.78
2019-06-15T01:08:35.379Z,18.90
2019-06-15T01:09:35.123Z,18.84
2019-06-15T01:10:35.031Z,18.89
2019-06-15T01:11:34.944Z,18.93
2019-06-15T01:12:34.998Z,18.84
2019-06-15T01:13:34.784Z,18.84
2019-06-15T01:14:34.722Z,18.84
2019-06-15T01:15:34.810Z,18.86
2019-06-15T01:16:34.545Z,18.82
2019-06-15T01:17:34.626Z,18.84
2019-06-15T01:18:34.391Z,18.87
2019-06-15T01:19:34.486Z,18.84
2019-06-15T01:20:34.282Z,18.84
2019-06-15T01:21:34.242Z,18.89
2019-06-15T01:22:34.062Z,18.87
2019-06-15T01:23:34.045Z,19.02
2019-06-15T01:24:33.922Z,18.91
2019-06-15T01:25:33.851Z,18.90
2019-06-15T01:26:33.751Z,18.97
2019-06-15T01:27:34.260Z,19.01
2019-06-15T01:28:33.590Z,19.01
2019-06-15T01:29:33.706Z,18.96
2019-06-15T01:30:33.425Z,18.93
2019-06-15T01:31:33.342Z,18.96
2019-06-15T01:32:33.288Z,18.99
2019-06-15T01:33:33.184Z,18.89
2019-06-15T01:34:33.115Z,18.93
2019-06-15T01:35:33.099Z,19.02
2019-06-15T01:36:32.939Z,19.01
2019-06-15T01:37:32.911Z,19.01
2019-06-15T01:38:32.775Z,18.99
2019-06-15T01:39:32.714Z,19.01
2019-06-15T01:40:32.723Z,19.10
2019-06-15T01:41:32.543Z,19.07
2019-06-15T01:42:32.457Z,19.07
2019-06-15T01:43:32.547Z,19.12
2019-06-15T01:44:32.309Z,19.10
2019-06-15T01:45:32.232Z,19.06
2019-06-15T01:46:32.355Z,19.13
2019-06-15T01:47:32.060Z,19.10
2019-06-15T01:48:33.188Z,19.12
2019-06-15T01:49:31.913Z,19.09
2019-06-15T01:50:31.972Z,19.07
2019-06-15T01:51:31.737Z,19.07
2019-06-15T01:52:31.781Z,18.99
2019-06-15T01:53:31.582Z,19.01
2019-06-15T01:54:31.619Z,19.05
2019-06-15T01:55:31.413Z,19.07
2019-06-15T01:56:31.339Z,19.10
2019-06-15T01:57:31.407Z,19.09
2019-06-15T01:58:31.180Z,18.96
2019-06-15T01:59:31.115Z,19.12
2019-06-15T02:00:31.217Z,19.07
2019-06-15T02:01:30.945Z,19.06
2019-06-15T02:02:30.855Z,19.09
2019-06-15T02:03:30.827Z,19.02
2019-06-15T02:04:31.140Z,18.94
2019-06-15T02:05:30.614Z,18.94
2019-06-15T02:06:30.682Z,18.91
2019-06-15T02:07:30.475Z,18.99
2019-06-15T02:08:30.425Z,19.05
2019-06-15T02:09:30.498Z,18.94
2019-06-15T02:10:30.238Z,18.97
2019-06-15T02:11:30.155Z,18.97
2019-06-15T02:12:30.278Z,19.01
2019-06-15T02:13:29.976Z,18.87
2019-06-15T02:14:29.891Z,18.89
2019-06-15T02:15:29.827Z,18.91
2019-06-15T02:16:29.891Z,18.90
2019-06-15T02:17:29.654Z,18.89
2019-06-15T02:18:29.579Z,18.94
2019-06-15T02:19:29.494Z,18.97
2019-06-15T02:20:29.437Z,18.96
2019-06-15T02:21:29.337Z,18.97
2019-06-15T02:22:29.315Z,18.94
2019-06-15T02:23:29.177Z,19.02
2019-06-15T02:24:29.129Z,18.97
2019-06-15T02:25:35.839Z,18.99
2019-06-15T02:26:29.144Z,18.97
2019-06-15T02:27:28.850Z,18.99
2019-06-15T02:28:28.946Z,19.05
2019-06-15T02:29:28.696Z,18.99
2019-06-15T02:30:29.818Z,19.07
2019-06-15T02:31:28.538Z,18.97
2019-06-15T02:32:28.562Z,18.96
2019-06-15T02:33:28.371Z,19.01
2019-06-15T02:34:28.382Z,18.97
2019-06-15T02:35:28.227Z,18.99
2019-06-15T02:36:28.142Z,19.01
2019-06-15T02:37:28.054Z,18.96
2019-06-15T02:38:27.988Z,18.96
2019-06-15T02:39:27.893Z,18.96
2019-06-15T02:40:28.036Z,18.94
2019-06-15T02:41:27.731Z,18.96
2019-06-15T02:42:27.817Z,18.94
2019-06-15T02:43:27.576Z,18.96
2019-06-15T02:44:27.625Z,18.94
2019-06-15T02:45:27.423Z,18.99
2019-06-15T02:46:27.335Z,18.90
2019-06-15T02:47:27.432Z,18.93
2019-06-15T02:48:27.188Z,18.94
2019-06-15T02:49:27.096Z,18.93
2019-06-15T02:50:27.078Z,18.93
2019-06-15T02:51:26.934Z,19.05
2019-06-15T02:52:26.857Z,19.02
2019-06-15T02:53:26.859Z,19.01
2019-06-15T02:54:26.693Z,18.97
2019-06-15T02:55:26.636Z,19.02
2019-06-15T02:56:26.676Z,18.93
2019-06-15T02:57:26.457Z,19.01
2019-06-15T02:58:26.391Z,18.94
2019-06-15T02:59:26.490Z,18.99
2019-06-15T03:00:26.234Z,18.97
2019-06-15T03:01:26.141Z,19.02
2019-06-15T03:02:26.099Z,18.97
2019-06-15T03:03:25.971Z,18.97
2019-06-15T03:04:25.888Z,19.02
2019-06-15T03:05:25.959Z,18.90
2019-06-15T03:06:25.747Z,18.99
2019-06-15T03:07:25.742Z,18.93
2019-06-15T03:08:25.585Z,18.86
2019-06-15T03:09:25.534Z,18.90
2019-06-15T03:10:25.420Z,19.01
2019-06-15T03:11:25.553Z,18.93
2019-06-15T03:12:25.251Z,18.93
2019-06-15T03:13:25.352Z,18.94
2019-06-15T03:14:25.097Z,19.10
2019-06-15T03:15:25.193Z,19.05
2019-06-15T03:16:24.932Z,18.96
2019-06-15T03:17:24.968Z,19.02
2019-06-15T03:18:24.770Z,18.97
2019-06-15T03:19:24.777Z,19.01
2019-06-15T03:20:24.628Z,18.96
2019-06-15T03:21:24.588Z,19.02
2019-06-15T03:22:24.446Z,18.96
2019-06-15T03:23:24.413Z,19.06
2019-06-15T03:24:24.294Z,19.02
2019-06-15T03:25:24.443Z,19.02
2019-06-15T03:26:24.127Z,19.07
2019-06-15T03:27:24.220Z,19.07
2019-06-15T03:28:23.967Z,19.12
2019-06-15T03:29:24.025Z,19.10
2019-06-15T03:30:23.828Z,19.05
2019-06-15T03:31:23.732Z,19.09
2019-06-15T03:32:23.841Z,19.10
2019-06-15T03:33:23.564Z,19.12
2019-06-15T03:34:23.489Z,19.13
2019-06-15T03:35:23.485Z,19.12
2019-06-15T03:36:23.337Z,19.17
2019-06-15T03:37:23.252Z,19.09
2019-06-15T03:38:23.267Z,19.10
2019-06-15T03:39:23.092Z,19.24
2019-06-15T03:40:23.027Z,19.10
2019-06-15T03:41:23.081Z,19.15
2019-06-15T03:42:22.847Z,19.13
2019-06-15T03:43:22.892Z,19.12
2019-06-15T03:44:22.686Z,19.16
2019-06-15T03:45:22.731Z,19.17
2019-06-15T03:46:22.534Z,19.09
2019-06-15T03:47:22.454Z,19.10
2019-06-15T03:48:22.369Z,19.07
2019-06-15T03:49:22.314Z,19.01
2019-06-15T03:50:22.224Z,19.07
2019-06-15T03:51:22.133Z,19.12
2019-06-15T03:52:22.044Z,19.17
2019-06-15T03:53:22.135Z,19.12
2019-06-15T03:54:21.890Z,19.15
2019-06-15T03:55:21.827Z,19.13
2019-06-15T03:56:22.377Z,19.13
2019-06-15T03:57:21.663Z,19.17
2019-06-15T03:58:21.574Z,19.13
2019-06-15T03:59:21.562Z,19.16
2019-06-15T04:00:21.420Z,19.10
2019-06-15T04:01:21.344Z,19.13
2019-06-15T04:02:21.374Z,19.15
2019-06-15T04:03:21.168Z,19.13
2019-06-15T04:04:21.087Z,19.09
2019-06-15T04:05:21.240Z,19.09
2019-06-15T04:06:20.941Z,19.20
2019-06-15T04:07:21.003Z,19.12
2019-06-15T04:08:20.767Z,19.13
2019-06-15T04:09:20.813Z,19.20
2019-06-15T04:10:20.607Z,19.13
2019-06-15T04:11:20.546Z,19.12
2019-06-15T04:12:20.627Z,19.15
2019-06-15T04:13:20.368Z,19.13
2019-06-15T04:14:20.283Z,19.15
2019-06-15T04:15:20.234Z,19.23
2019-06-15T04:16:20.140Z,19.13
2019-06-15T04:17:20.274Z,19.17
2019-06-15T04:18:19.962Z,19.25
2019-06-15T04:19:19.895Z,19.13
2019-06-15T04:20:19.802Z,19.21
2019-06-15T04:21:19.751Z,19.10
2019-06-15T04:22:19.711Z,19.17
2019-06-15T04:23:19.570Z,19.15
2019-06-15T04:24:19.487Z,19.13
2019-06-15T04:25:19.407Z,19.13
2019-06-15T04:26:19.386Z,19.15
2019-06-15T04:27:19.257Z,19.17
2019-06-15T04:28:19.158Z,19.16
2019-06-15T04:29:19.098Z,19.16
2019-06-15T04:30:19.001Z,19.15
2019-06-15T04:31:19.650Z,19.15
2019-06-15T04:32:18.855Z,19.10
2019-06-15T04:33:18.766Z,19.07
2019-06-15T04:34:18.680Z,19.10
2019-06-15T04:35:18.616Z,19.10
2019-06-15T04:36:18.546Z,19.10
2019-06-15T04:37:18.441Z,19.07
2019-06-15T04:38:18.382Z,19.09
2019-06-15T04:39:18.284Z,19.05
2019-06-15T04:40:18.207Z,19.09
2019-06-15T04:41:18.140Z,19.09
2019-06-15T04:42:18.062Z,19.06
2019-06-15T04:43:17.969Z,19.15
2019-06-15T04:44:17.879Z,19.09
2019-06-15T04:45:17.804Z,19.06
2019-06-15T04:46:17.741Z,19.09
2019-06-15T04:47:17.639Z,19.06
2019-06-15T04:48:17.573Z,19.02
2019-06-15T04:49:17.485Z,18.99
2019-06-15T04:50:17.403Z,18.96
2019-06-15T04:51:17.345Z,19.06
2019-06-15T04:52:17.244Z,19.09
2019-06-15T04:53:17.158Z,19.02
2019-06-15T04:54:17.117Z,18.99
2019-06-15T04:55:17.013Z,19.07
2019-06-15T04:56:16.943Z,18.94
2019-06-15T04:57:16.929Z,18.99
2019-06-15T04:58:16.761Z,18.94
2019-06-15T04:59:16.699Z,18.91
2019-06-15T05:00:16.608Z,18.87
2019-06-15T05:01:16.587Z,18.87
2019-06-15T05:02:16.447Z,18.86
2019-06-15T05:03:16.367Z,18.84
2019-06-15T05:04:16.674Z,18.87
2019-06-15T05:05:16.212Z,18.79
2019-06-15T05:06:16.132Z,18.84
2019-06-15T05:07:16.039Z,18.78
2019-06-15T05:08:15.968Z,18.76
2019-06-15T05:09:15.878Z,18.75
2019-06-15T05:10:15.799Z,18.76
2019-06-15T05:11:15.737Z,18.83
2019-06-15T05:12:15.641Z,18.78
2019-06-15T05:13:15.562Z,18.79
2019-06-15T05:14:15.484Z,18.74
2019-06-15T05:15:15.408Z,18.78
2019-06-15T05:16:15.328Z,18.74
2019-06-15T05:17:15.241Z,18.78
2019-06-15T05:18:15.169Z,18.71
2019-06-15T05:19:15.075Z,18.84
2019-06-15T05:20:15.005Z,18.71
2019-06-15T05:21:14.932Z,18.72
2019-06-15T05:22:14.848Z,18.74
2019-06-15T05:23:14.759Z,18.72
2019-06-15T05:24:14.677Z,18.60
2019-06-15T05:25:14.607Z,18.71
2019-06-15T05:26:14.544Z,18.59
2019-06-15T05:27:14.437Z,18.72
2019-06-15T05:28:14.358Z,18.76
2019-06-15T05:29:14.273Z,18.60
2019-06-15T05:30:14.208Z,18.62
2019-06-15T05:31:14.126Z,18.60
2019-06-15T05:32:14.032Z,18.60
2019-06-15T05:33:13.955Z,18.71
2019-06-15T05:34:13.881Z,18.66
2019-06-15T05:35:13.797Z,18.68
2019-06-15T05:36:13.765Z,18.66
2019-06-15T05:37:13.646Z,18.62
2019-06-15T05:38:13.563Z,18.68
2019-06-15T05:39:13.552Z,18.66
2019-06-15T05:40:13.388Z,18.64
2019-06-15T05:41:15.736Z,18.65
2019-06-15T05:42:13.267Z,18.60
2019-06-15T05:43:13.158Z,18.57
2019-06-15T05:44:14.096Z,18.57
2019-06-15T05:45:12.997Z,18.68
2019-06-15T05:46:13.021Z,18.68
2019-06-15T05:47:13.160Z,18.65
2019-06-15T05:48:12.793Z,18.62
2019-06-15T05:49:12.676Z,18.68
2019-06-15T05:50:13.626Z,18.68
2019-06-15T05:51:12.519Z,18.65
2019-06-15T05:52:12.510Z,18.62
2019-06-15T05:53:12.350Z,18.74
2019-06-15T05:54:13.666Z,18.82
2019-06-15T05:55:12.187Z,18.79
2019-06-15T05:56:12.162Z,18.90
2019-06-15T05:57:21.131Z,18.91
2019-06-15T05:58:12.040Z,18.96
2019-06-15T05:59:11.876Z,18.97
2019-06-15T06:00:11.907Z,18.99
2019-06-15T06:01:11.720Z,19.06
2019-06-15T06:02:14.864Z,18.96
2019-06-15T06:03:11.546Z,19.07
2019-06-15T06:04:11.571Z,19.15
2019-06-15T06:05:11.386Z,19.15
2019-06-15T06:06:11.413Z,19.09
2019-06-15T06:07:11.235Z,19.06
2019-06-15T06:08:17.858Z,19.23
2019-06-15T06:09:11.077Z,19.13
2019-06-15T06:10:11.267Z,19.07
2019-06-15T06:11:10.910Z,19.10
2019-06-15T06:12:10.837Z,19.07
2019-06-15T06:13:10.814Z,19.12
2019-06-15T06:14:10.664Z,19.06
2019-06-15T06:15:10.604Z,19.09
2019-06-15T06:16:10.532Z,19.05
2019-06-15T06:17:10.443Z,18.99
2019-06-15T06:18:10.355Z,19.01
2019-06-15T06:19:10.361Z,18.99
2019-06-15T06:20:10.195Z,19.05
2019-06-15T06:21:10.111Z,18.97
2019-06-15T06:22:10.046Z,18.89
2019-06-15T06:23:09.967Z,18.91
2019-06-15T06:24:09.878Z,18.89
2019-06-15T06:25:09.789Z,18.97
2019-06-15T06:26:09.712Z,18.97
2019-06-15T06:27:11.670Z,18.97
2019-06-15T06:28:09.544Z,18.99
2019-06-15T06:29:09.492Z,19.06
2019-06-15T06:30:09.389Z,18.96
2019-06-15T06:31:09.405Z,19.01
2019-06-15T06:32:09.262Z,19.06
2019-06-15T06:33:15.870Z,18.96
2019-06-15T06:34:09.090Z,19.12
2019-06-15T06:35:09.030Z,19.06
2019-06-15T06:36:08.914Z,19.05
2019-06-15T06:37:08.840Z,19.16
2019-06-15T06:38:08.859Z,19.10
2019-06-15T06:39:08.668Z,19.12
2019-06-15T06:40:08.596Z,19.28
2019-06-15T06:41:08.555Z,19.27
2019-06-15T06:42:08.444Z,19.30
2019-06-15T06:43:08.357Z,19.45
2019-06-15T06:44:08.266Z,19.46
2019-06-15T06:45:08.269Z,19.52
2019-06-15T06:46:08.125Z,19.49
2019-06-15T06:47:08.123Z,19.55
2019-06-15T06:48:07.978Z,19.62
2019-06-15T06:49:07.888Z,19.71
2019-06-15T06:50:07.790Z,19.83
2019-06-15T06:51:07.803Z,19.87
2019-06-15T06:52:07.647Z,19.95
2019-06-15T06:53:07.568Z,19.95
2019-06-15T06:54:07.514Z,20.12
2019-06-15T06:55:07.396Z,20.22
2019-06-15T06:56:07.309Z,20.38
2019-06-15T06:57:07.271Z,20.42
2019-06-15T06:58:07.148Z,20.53
2019-06-15T06:59:07.080Z,20.56
2019-06-15T07:00:07.084Z,20.71
2019-06-15T07:01:06.923Z,20.64
2019-06-15T07:02:07.198Z,20.72
2019-06-15T07:03:06.759Z,20.72
2019-06-15T07:04:06.675Z,20.88
2019-06-15T07:05:06.676Z,20.87
2019-06-15T07:06:06.524Z,20.82
2019-06-15T07:07:06.461Z,20.91
2019-06-15T07:08:06.358Z,20.79
2019-06-15T07:09:06.391Z,20.87
2019-06-15T07:10:06.202Z,20.88
2019-06-15T07:11:06.662Z,20.98
2019-06-15T07:12:06.062Z,20.94
2019-06-15T07:13:06.009Z,21.00
2019-06-15T07:14:05.899Z,20.97
2019-06-15T07:15:05.937Z,20.91
2019-06-15T07:16:05.731Z,20.98
2019-06-15T07:17:05.669Z,21.01
2019-06-15T07:18:05.630Z,21.09
2019-06-15T07:19:05.502Z,21.03
2019-06-15T07:20:13.294Z,21.16
2019-06-15T07:21:13.327Z,21.13
2019-06-15T07:22:05.394Z,21.16
2019-06-15T07:23:05.184Z,21.21
2019-06-15T07:24:05.106Z,21.34
2019-06-15T07:25:05.074Z,21.51
2019-06-15T07:26:04.948Z,21.56
2019-06-15T07:27:04.883Z,21.63
2019-06-15T07:28:08.342Z,21.85
2019-06-15T07:29:04.720Z,22.08
2019-06-15T07:30:04.638Z,22.12
2019-06-15T07:31:04.601Z,22.29
2019-06-15T07:32:04.517Z,22.54
2019-06-15T07:33:04.411Z,22.72
2019-06-15T07:34:04.337Z,22.72
2019-06-15T07:35:04.251Z,22.89
2019-06-15T07:36:04.175Z,22.76
2019-06-15T07:37:04.165Z,22.74
2019-06-15T07:38:04.013Z,22.91
2019-06-15T07:39:04.037Z,22.93
2019-06-15T07:40:03.865Z,22.88
2019-06-15T07:41:03.848Z,22.69
2019-06-15T07:42:03.736Z,22.79
2019-06-15T07:43:03.635Z,22.69
2019-06-15T07:44:03.707Z,22.46
2019-06-15T07:45:03.500Z,22.36
2019-06-15T07:46:03.431Z,22.29
2019-06-15T07:47:09.479Z,22.31
2019-06-15T07:48:03.267Z,22.44
2019-06-15T07:49:04.975Z,22.14
2019-06-15T07:50:03.194Z,22.14
2019-06-15T07:51:03.032Z,22.14
2019-06-15T07:52:02.977Z,22.20
2019-06-15T07:53:09.871Z,22.11
2019-06-15T07:54:02.802Z,21.94
2019-06-15T07:55:02.816Z,21.89
2019-06-15T07:56:02.653Z,21.75
2019-06-15T07:57:02.667Z,21.59
2019-06-15T07:58:02.488Z,21.46
2019-06-15T07:59:02.435Z,21.37
2019-06-15T08:00:02.332Z,21.33
2019-06-15T08:01:02.377Z,21.27
2019-06-15T08:02:02.191Z,21.26
2019-06-15T08:03:02.154Z,21.16
2019-06-15T08:04:02.021Z,21.21
2019-06-15T08:05:01.960Z,21.15
2019-06-15T08:06:01.862Z,21.16
2019-06-15T08:07:01.910Z,21.28
2019-06-15T08:08:01.708Z,21.12
2019-06-15T08:09:01.635Z,21.12
2019-06-15T08:10:01.568Z,21.08
2019-06-15T08:11:01.481Z,21.03
2019-06-15T08:12:01.429Z,20.88
2019-06-15T08:13:03.363Z,20.85
2019-06-15T08:14:01.242Z,20.81
2019-06-15T08:15:01.166Z,20.72
2019-06-15T08:16:01.120Z,20.61
2019-06-15T08:17:01.023Z,20.58
2019-06-15T08:18:00.927Z,20.60
2019-06-15T08:19:02.889Z,20.71
2019-06-15T08:20:00.769Z,20.69
2019-06-15T08:21:00.748Z,20.53
2019-06-15T08:22:00.721Z,20.61
2019-06-15T08:23:00.538Z,20.63
2019-06-15T08:24:00.572Z,20.60
2019-06-15T08:25:00.380Z,20.63
2019-06-15T08:26:00.296Z,20.68
2019-06-15T08:27:00.307Z,20.60
2019-06-15T08:28:00.135Z,20.57
2019-06-15T08:29:00.065Z,20.56
2019-06-15T08:29:59.976Z,20.66
2019-06-15T08:31:01.447Z,20.57
2019-06-15T08:31:59.823Z,20.68
2019-06-15T08:32:59.764Z,20.61
2019-06-15T08:33:59.714Z,20.63
2019-06-15T08:34:59.588Z,20.46
2019-06-15T08:36:02.247Z,20.63
2019-06-15T08:36:59.432Z,20.44
2019-06-15T08:37:59.365Z,20.30
2019-06-15T08:38:59.275Z,20.12
2019-06-15T08:39:59.189Z,19.92
2019-06-15T08:40:59.109Z,19.90
2019-06-15T08:41:59.043Z,19.83
2019-06-15T08:42:58.968Z,19.82
2019-06-15T08:43:58.873Z,19.72
2019-06-15T08:44:58.802Z,19.71
2019-06-15T08:45:58.713Z,19.78
2019-06-15T08:46:59.487Z,19.70
2019-06-15T08:47:58.566Z,19.75
2019-06-15T08:48:58.488Z,19.79
2019-06-15T08:49:58.391Z,19.75
2019-06-15T08:50:58.309Z,19.75
2019-06-15T08:51:58.247Z,19.85
2019-06-15T08:52:58.180Z,19.89
2019-06-15T08:53:58.085Z,19.92
2019-06-15T08:54:58.008Z,19.95
2019-06-15T08:55:57.936Z,20.05
2019-06-15T08:56:57.836Z,19.95
2019-06-15T08:57:57.807Z,19.97
2019-06-15T08:58:57.678Z,19.89
2019-06-15T08:59:57.604Z,19.94
2019-06-15T09:00:58.006Z,19.92
2019-06-15T09:01:57.440Z,19.94
2019-06-15T09:02:57.373Z,19.95
2019-06-15T09:03:57.286Z,19.79
2019-06-15T09:04:57.209Z,19.80
2019-06-15T09:05:57.126Z,19.80
2019-06-15T09:06:57.044Z,19.72
2019-06-15T09:07:56.980Z,19.75
2019-06-15T09:08:56.891Z,19.72
2019-06-15T09:09:56.801Z,19.83
2019-06-15T09:10:56.723Z,19.67
2019-06-15T09:11:56.663Z,19.71
2019-06-15T09:12:56.573Z,19.79
2019-06-15T09:13:56.504Z,19.70
2019-06-15T09:14:56.405Z,19.79
2019-06-15T09:15:56.330Z,19.80
2019-06-15T09:16:56.247Z,19.76
2019-06-15T09:17:56.182Z,19.92
2019-06-15T09:18:57.555Z,19.95
2019-06-15T09:19:56.009Z,19.80
2019-06-15T09:20:55.933Z,19.89
2019-06-15T09:21:55.857Z,19.83
2019-06-15T09:22:55.780Z,19.71
2019-06-15T09:23:55.684Z,19.72
2019-06-15T09:24:55.628Z,19.72
2019-06-15T09:25:55.532Z,19.72
2019-06-15T09:26:55.447Z,19.72
2019-06-15T09:27:55.387Z,19.70
2019-06-15T09:29:07.737Z,19.75
2019-06-15T09:29:55.210Z,19.87
2019-06-15T09:30:55.156Z,20.05
2019-06-15T09:31:55.049Z,20.22
2019-06-15T09:32:54.990Z,20.37
2019-06-15T09:33:54.893Z,20.41
2019-06-15T09:34:54.814Z,20.40
2019-06-15T09:35:54.730Z,20.46
2019-06-15T09:36:54.668Z,20.42
2019-06-15T09:37:54.598Z,20.61
2019-06-15T09:38:54.500Z,20.57
2019-06-15T09:39:54.423Z,20.78
2019-06-15T09:40:54.334Z,20.79
2019-06-15T09:41:54.266Z,20.81
2019-06-15T09:42:54.198Z,20.85
2019-06-15T09:43:54.097Z,20.69
2019-06-15T09:44:54.021Z,20.66
2019-06-15T09:45:53.943Z,20.69
2019-06-15T09:46:53.872Z,20.83
2019-06-15T09:47:53.797Z,21.12
2019-06-15T09:48:53.724Z,21.64
2019-06-15T09:49:53.627Z,21.98
2019-06-15T09:50:53.647Z,22.04
2019-06-15T09:51:53.473Z,22.29
2019-06-15T09:52:53.415Z,22.17
2019-06-15T09:53:53.328Z,22.36
2019-06-15T09:54:53.269Z,22.24
2019-06-15T09:55:53.161Z,22.38
2019-06-15T09:56:53.103Z,22.38
2019-06-15T09:57:53.027Z,22.74
2019-06-15T09:58:52.933Z,23.23
2019-06-15T09:59:52.873Z,23.23
2019-06-15T10:00:52.789Z,23.07
2019-06-15T10:01:53.131Z,23.07
2019-06-15T10:02:52.652Z,23.16
2019-06-15T10:03:52.563Z,23.09
2019-06-15T10:04:52.496Z,23.19
2019-06-15T10:05:52.417Z,23.39
2019-06-15T10:06:52.338Z,23.32
2019-06-15T10:07:52.285Z,23.45
2019-06-15T10:08:52.206Z,23.60
2019-06-15T10:09:52.126Z,23.77
2019-06-15T10:10:52.045Z,23.93
2019-06-15T10:11:51.985Z,24.09
2019-06-15T10:12:51.917Z,24.26
2019-06-15T10:13:51.837Z,24.23
2019-06-15T10:14:51.757Z,24.37
2019-06-15T10:15:51.699Z,24.67
2019-06-15T10:16:51.625Z,24.86
2019-06-15T10:17:51.957Z,24.97
2019-06-15T10:18:51.480Z,24.97
2019-06-15T10:19:51.421Z,24.66
2019-06-15T10:20:51.342Z,24.59
2019-06-15T10:21:51.280Z,24.63
2019-06-15T10:22:51.225Z,24.71
2019-06-15T10:23:51.146Z,24.52
2019-06-15T10:24:51.071Z,24.08
2019-06-15T10:25:54.088Z,24.19
2019-06-15T10:26:50.935Z,24.42
2019-06-15T10:27:50.877Z,24.66
2019-06-15T10:28:50.815Z,24.84
2019-06-15T10:29:50.725Z,24.82
2019-06-15T10:30:50.663Z,25.05
2019-06-15T10:31:50.594Z,25.07
2019-06-15T10:32:50.535Z,24.83
2019-06-15T10:33:50.487Z,24.80
2019-06-15T10:34:50.398Z,24.90
2019-06-15T10:35:50.329Z,25.07
2019-06-15T10:36:50.252Z,24.84
2019-06-15T10:37:50.201Z,24.63
2019-06-15T10:38:50.116Z,24.92
2019-06-15T10:39:50.047Z,25.22
2019-06-15T10:40:49.987Z,25.20
2019-06-15T10:41:49.905Z,25.31
2019-06-15T10:42:49.864Z,25.49
2019-06-15T10:43:49.769Z,25.34
2019-06-15T10:44:50.786Z,25.16
2019-06-15T10:45:49.647Z,25.24
2019-06-15T10:46:49.601Z,25.44
2019-06-15T10:47:49.522Z,25.36
2019-06-15T10:48:49.432Z,25.46
2019-06-15T10:49:49.376Z,25.64
2019-06-15T10:50:49.309Z,25.94
2019-06-15T10:51:49.237Z,26.13
2019-06-15T10:52:49.181Z,25.66
2019-06-15T10:53:49.112Z,25.79
2019-06-15T10:54:49.034Z,25.75
2019-06-15T10:55:48.960Z,25.76
2019-06-15T10:56:48.912Z,26.00
2019-06-15T10:57:48.832Z,26.12
2019-06-15T10:58:48.778Z,26.01
2019-06-15T10:59:57.482Z,25.89
2019-06-15T11:00:48.959Z,25.49
2019-06-15T11:01:48.571Z,25.27
2019-06-15T11:02:48.511Z,25.44
2019-06-15T11:03:48.449Z,25.48
2019-06-15T11:04:48.369Z,25.26
2019-06-15T11:05:48.313Z,25.12
2019-06-15T11:06:48.309Z,25.02
2019-06-15T11:07:48.160Z,25.07
2019-06-15T11:08:48.122Z,25.09
2019-06-15T11:09:48.026Z,25.14
2019-06-15T11:10:47.960Z,25.30
2019-06-15T11:11:47.904Z,25.53
2019-06-15T11:12:47.824Z,25.59
2019-06-15T11:13:47.767Z,25.74
2019-06-15T11:14:47.691Z,25.72
2019-06-15T11:15:47.615Z,25.56
2019-06-15T11:16:47.587Z,25.42
2019-06-15T11:17:47.486Z,25.39
2019-06-15T11:18:47.428Z,25.30
2019-06-15T11:19:47.347Z,25.44
2019-06-15T11:20:47.270Z,25.41
2019-06-15T11:21:47.209Z,25.22
2019-06-15T11:22:47.140Z,25.20
2019-06-15T11:23:47.083Z,25.14
2019-06-15T11:24:47.027Z,25.11
2019-06-15T11:25:46.942Z,25.02
2019-06-15T11:26:46.862Z,25.11
2019-06-15T11:27:46.803Z,25.09
2019-06-15T11:28:46.741Z,24.89
2019-06-15T11:29:46.682Z,24.83
2019-06-15T11:30:46.574Z,24.79
2019-06-15T11:31:46.516Z,24.77
2019-06-15T11:32:46.438Z,24.66
2019-06-15T11:33:46.381Z,24.77
2019-06-15T11:34:46.303Z,24.82
2019-06-15T11:35:46.232Z,24.93
2019-06-15T11:36:46.164Z,24.98
2019-06-15T11:37:46.089Z,25.24
2019-06-15T11:38:46.026Z,25.35
2019-06-15T11:39:45.943Z,25.26
2019-06-15T11:40:45.862Z,25.20
2019-06-15T11:41:45.799Z,25.23
2019-06-15T11:42:45.720Z,25.26
2019-06-15T11:43:45.675Z,25.39
2019-06-15T11:44:45.624Z,25.61
2019-06-15T11:45:45.509Z,25.61
2019-06-15T11:46:45.439Z,25.61
2019-06-15T11:47:45.370Z,25.60
2019-06-15T11:48:45.310Z,25.56
2019-06-15T11:49:45.225Z,25.54
2019-06-15T11:50:45.170Z,25.61
2019-06-15T11:51:45.086Z,25.72
2019-06-15T11:52:45.022Z,25.81
2019-06-15T11:53:44.962Z,26.03
2019-06-15T11:54:44.870Z,25.89
2019-06-15T11:55:44.822Z,25.83
2019-06-15T11:56:44.740Z,25.69
2019-06-15T11:57:44.656Z,25.57
2019-06-15T11:58:44.601Z,25.44
2019-06-15T11:59:44.912Z,25.57
2019-06-15T12:00:44.446Z,25.61
2019-06-15T12:01:44.379Z,25.42
2019-06-15T12:02:44.316Z,25.36
2019-06-15T12:03:44.246Z,25.23
2019-06-15T12:04:57.729Z,25.14
2019-06-15T12:05:44.088Z,25.34
2019-06-15T12:06:44.034Z,25.44
2019-06-15T12:07:43.946Z,25.35
2019-06-15T12:08:43.902Z,25.27
2019-06-15T12:09:43.811Z,25.19
2019-06-15T12:10:43.738Z,25.07
2019-06-15T12:11:43.670Z,24.97
2019-06-15T12:12:43.593Z,24.98
2019-06-15T12:13:43.534Z,25.02
2019-06-15T12:14:43.460Z,24.92
2019-06-15T12:15:43.374Z,24.79
2019-06-15T12:16:43.306Z,24.97
2019-06-15T12:17:43.238Z,25.07
2019-06-15T12:18:43.173Z,25.22
2019-06-15T12:19:43.093Z,25.30
2019-06-15T12:20:43.024Z,25.75
2019-06-15T12:21:42.947Z,25.75
2019-06-15T12:22:42.871Z,25.91
2019-06-15T12:23:42.819Z,26.09
2019-06-15T12:24:42.743Z,25.91
2019-06-15T12:25:42.651Z,25.59
2019-06-15T12:26:42.596Z,25.49
2019-06-15T12:27:42.518Z,25.60
2019-06-15T12:28:42.450Z,25.67
2019-06-15T12:29:42.372Z,25.59
2019-06-15T12:30:47.331Z,25.85
2019-06-15T12:31:42.222Z,25.85
2019-06-15T12:32:42.164Z,25.72
2019-06-15T12:33:42.101Z,25.49
2019-06-15T12:34:42.010Z,25.24
2019-06-15T12:35:41.949Z,25.11
2019-06-15T12:36:41.882Z,25.45
2019-06-15T12:37:41.819Z,25.60
2019-06-15T12:38:41.747Z,25.63
2019-06-15T12:39:42.170Z,25.64
2019-06-15T12:40:41.595Z,25.90
2019-06-15T12:41:41.516Z,26.21
2019-06-15T12:42:41.447Z,26.50
2019-06-15T12:43:41.396Z,26.44
2019-06-15T12:44:41.311Z,26.71
2019-06-15T12:45:41.239Z,27.02
2019-06-15T12:46:41.178Z,27.15
2019-06-15T12:47:41.099Z,27.59
2019-06-15T12:48:41.061Z,27.63
2019-06-15T12:49:40.970Z,27.27
2019-06-15T12:50:40.899Z,26.84
2019-06-15T12:51:41.028Z,26.73